Time;durP1;ratioP1;P1;durP2;ratioP2;P2;SDS_P1;SDS_P2;PMS_P1;PMS_P2;Temp;Humidity;BMP_temperature;BMP_pressure;BME280_temperature;BME280_humidity;BME280_pressure;Samples;Min_cycle;Max_cycle;Signal;HPM_P1;HPM_P2
2022/09/25 00:00:57;;;;;;;21.27;10.50;;;;;;;12.18;100.00;100675.19;5998928;28;20053;-67
2022/09/25 00:03:52;;;;;;;21.35;10.10;;;;;;;12.10;100.00;100674.31;6000701;28;20081;-67
2022/09/25 00:06:48;;;;;;;24.43;11.67;;;;;;;12.20;100.00;100664.41;6000756;28;20031;-67
2022/09/25 00:09:43;;;;;;;23.13;10.73;;;;;;;12.27;100.00;100681.41;6000372;28;20490;-67
2022/09/25 00:12:38;;;;;;;25.17;11.27;;;;;;;12.09;100.00;100670.00;6000054;28;20039;-67
2022/09/25 00:15:34;;;;;;;23.37;11.20;;;;;;;12.15;100.00;100677.34;5999794;28;20043;-67
2022/09/25 00:21:43;;;;;;;21.55;10.70;;;;;;;12.15;100.00;100677.34;6000054;28;20378;-67
2022/09/25 00:24:39;;;;;;;21.85;10.93;;;;;;;12.10;100.00;100656.53;6000087;28;20062;-67
2022/09/25 00:27:34;;;;;;;26.13;12.17;;;;;;;12.13;100.00;100664.19;6000323;28;20042;-67
2022/09/25 00:30:29;;;;;;;25.30;11.67;;;;;;;12.05;100.00;100655.34;5999019;28;20470;-67
2022/09/25 00:33:25;;;;;;;22.40;10.63;;;;;;;12.10;100.00;100661.00;5999996;28;20077;-67
2022/09/25 00:36:20;;;;;;;23.25;11.18;;;;;;;12.20;100.00;100665.22;5999612;28;20062;-67
2022/09/25 00:39:15;;;;;;;26.33;11.97;;;;;;;12.11;100.00;100662.69;5999889;28;20023;-67
2022/09/25 00:42:12;;;;;;;23.73;10.83;;;;;;;12.14;100.00;100662.38;5999420;28;20027;-67
2022/09/25 00:45:15;;;;;;;22.98;12.07;;;;;;;12.18;100.00;100645.94;5999369;28;20294;-67
2022/09/25 00:48:13;;;;;;;24.10;10.90;;;;;;;12.13;100.00;100647.41;6000186;28;20027;-67
2022/09/25 00:51:08;;;;;;;22.48;11.68;;;;;;;12.28;100.00;100646.69;5997568;28;20125;-67
2022/09/25 00:54:05;;;;;;;22.40;11.20;;;;;;;12.23;100.00;100648.16;5999661;28;20485;-67
2022/09/25 00:57:07;;;;;;;21.42;10.68;;;;;;;12.33;100.00;100648.84;5999211;28;20030;-67
2022/09/25 01:00:10;;;;;;;24.45;11.65;;;;;;;12.22;100.00;100652.63;5997353;28;20031;-66
2022/09/25 01:03:07;;;;;;;23.50;11.68;;;;;;;12.18;100.00;100653.91;6001975;28;20656;-67
2022/09/25 01:06:02;;;;;;;22.60;11.98;;;;;;;12.22;100.00;100663.25;5998245;28;20037;-67
2022/09/25 01:08:58;;;;;;;24.38;11.65;;;;;;;12.15;100.00;100650.78;5998764;28;20039;-67
2022/09/25 01:11:54;;;;;;;22.70;11.23;;;;;;;12.14;100.00;100644.63;5998944;28;20035;-67
2022/09/25 01:14:51;;;;;;;25.70;12.40;;;;;;;12.14;100.00;100646.44;6022854;28;20054;-67
2022/09/25 01:17:58;;;;;;;24.05;12.63;;;;;;;12.15;100.00;100662.22;6015127;28;20034;-67
2022/09/25 01:21:09;;;;;;;24.23;11.85;;;;;;;12.11;100.00;100665.34;6002931;28;20042;-67
2022/09/25 01:24:13;;;;;;;23.98;11.45;;;;;;;12.29;100.00;100663.44;6023320;28;20034;-66
2022/09/25 01:27:18;;;;;;;31.17;12.75;;;;;;;12.12;100.00;100645.75;5999024;28;20046;-67
2022/09/25 01:30:17;;;;;;;24.60;12.10;;;;;;;12.24;100.00;100655.13;5998513;28;20114;-67
2022/09/25 01:33:17;;;;;;;26.98;11.85;;;;;;;12.11;100.00;100644.09;5997558;28;20118;-67
2022/09/25 01:36:19;;;;;;;24.42;12.82;;;;;;;12.09;100.00;100646.06;5998082;28;20094;-67
2022/09/25 01:39:26;;;;;;;23.15;11.75;;;;;;;12.08;100.00;100645.22;5998672;28;20034;-67
2022/09/25 01:42:26;;;;;;;22.75;11.77;;;;;;;12.08;100.00;100636.41;5998222;28;20065;-67
2022/09/25 01:45:33;;;;;;;24.13;12.10;;;;;;;12.22;100.00;100657.09;5997534;28;20039;-67
2022/09/25 01:48:31;;;;;;;26.65;12.05;;;;;;;12.11;100.00;100644.09;5997623;28;20039;-67
2022/09/25 01:51:30;;;;;;;24.45;12.13;;;;;;;12.10;100.00;100645.06;5996614;28;20062;-67
2022/09/25 01:54:36;;;;;;;22.80;11.95;;;;;;;12.12;100.00;100661.72;5997546;28;20109;-67
2022/09/25 01:57:38;;;;;;;22.90;11.38;;;;;;;12.06;100.00;100649.88;6012963;28;20042;-67
2022/09/25 02:00:36;;;;;;;22.70;10.73;;;;;;;12.03;100.00;100636.06;6027658;28;20037;-67
2022/09/25 02:03:39;;;;;;;23.88;11.52;;;;;;;11.90;100.00;100621.34;6005136;28;20034;-67
2022/09/25 02:06:37;;;;;;;19.30;10.38;;;;;;;11.97;100.00;100631.38;6001464;28;20027;-67
2022/09/25 02:09:38;;;;;;;19.20;9.55;;;;;;;11.86;100.00;100635.97;5998626;28;20039;-67
2022/09/25 02:12:39;;;;;;;17.30;8.90;;;;;;;11.87;100.00;100642.13;5997678;28;20035;-67
2022/09/25 02:15:42;;;;;;;18.30;8.77;;;;;;;11.82;100.00;100645.22;5998738;28;20125;-67
2022/09/25 02:22:17;;;;;;;19.58;8.55;;;;;;;11.82;100.00;100645.22;5997772;28;20039;-67
2022/09/25 02:25:29;;;;;;;17.50;8.05;;;;;;;11.76;100.00;100640.56;5996946;28;20640;-67
2022/09/25 02:28:24;;;;;;;21.55;9.77;;;;;;;11.75;100.00;100630.91;6001844;28;20062;-67
2022/09/25 02:31:23;;;;;;;18.57;8.47;;;;;;;11.79;100.00;100644.72;6001729;28;20043;-67
2022/09/25 02:34:20;;;;;;;22.80;9.52;;;;;;;11.74;100.00;100639.84;6001429;28;20289;-67
2022/09/25 02:37:16;;;;;;;18.67;9.27;;;;;;;11.73;100.00;100642.69;6001117;28;20046;-67
2022/09/25 02:40:12;;;;;;;20.00;8.75;;;;;;;11.72;100.00;100648.97;6001856;28;20118;-67
2022/09/25 02:43:33;;;;;;;22.87;10.00;;;;;;;11.73;100.00;100651.50;6002742;28;20034;-67
2022/09/25 02:46:35;;;;;;;20.45;9.40;;;;;;;11.73;100.00;100654.16;6001416;28;20768;-67
2022/09/25 02:49:40;;;;;;;16.67;8.23;;;;;;;11.72;100.00;100654.28;6002661;28;20023;-67
2022/09/25 02:53:03;;;;;;;20.98;9.13;;;;;;;11.68;100.00;100661.72;6001666;28;20064;-67
2022/09/25 02:56:02;;;;;;;19.73;8.23;;;;;;;11.58;100.00;100638.88;6001814;28;20339;-67
2022/09/25 02:59:07;;;;;;;18.52;9.18;;;;;;;11.59;100.00;100644.03;6001135;28;20034;-67
2022/09/25 03:02:04;;;;;;;19.60;8.55;;;;;;;11.66;100.00;100645.06;6000199;28;20378;-67
2022/09/25 03:04:59;;;;;;;21.05;9.38;;;;;;;11.59;100.00;100637.88;6000630;28;20086;-66
2022/09/25 03:11:14;;;;;;;21.92;9.65;;;;;;;11.65;100.00;100638.13;6001453;28;20031;-67
2022/09/25 03:14:09;;;;;;;25.92;9.40;;;;;;;11.67;100.00;100645.91;6000817;28;20082;-67
2022/09/25 03:17:06;;;;;;;23.40;9.57;;;;;;;11.62;100.00;100638.41;6001354;28;20045;-67
2022/09/25 03:20:01;;;;;;;24.45;9.32;;;;;;;11.50;100.00;100629.00;6001719;28;20273;-67
2022/09/25 03:22:57;;;;;;;31.25;10.48;;;;;;;11.52;100.00;100627.06;6001356;28;20077;-67
2022/09/25 03:25:53;;;;;;;24.27;9.93;;;;;;;11.54;100.00;100648.97;6001289;28;20392;-67
2022/09/25 03:28:49;;;;;;;22.92;9.48;;;;;;;11.47;100.00;100628.50;6001604;28;20031;-67
2022/09/25 03:31:44;;;;;;;28.00;10.85;;;;;;;11.44;100.00;100626.16;6000617;28;20037;-67
2022/09/25 03:34:40;;;;;;;27.53;10.13;;;;;;;11.50;100.00;100636.97;6001429;28;20065;-67
2022/09/25 03:37:35;;;;;;;31.57;10.83;;;;;;;11.50;100.00;100641.44;6001311;28;20282;-67
2022/09/25 03:40:30;;;;;;;27.93;10.27;;;;;;;11.52;100.00;100637.69;6000976;28;20031;-67
2022/09/25 03:43:25;;;;;;;25.53;10.23;;;;;;;11.40;100.00;100622.13;6001263;28;20462;-67
2022/09/25 03:46:23;;;;;;;26.20;10.50;;;;;;;11.43;100.00;100627.97;6000493;28;20058;-67
2022/09/25 03:49:19;;;;;;;28.67;11.25;;;;;;;11.50;100.00;100639.63;6001191;28;20510;-67
2022/09/25 03:52:14;;;;;;;31.60;11.53;;;;;;;11.38;100.00;100624.94;6000453;28;20034;-67
2022/09/25 03:55:10;;;;;;;34.57;13.40;;;;;;;11.31;100.00;100630.03;6001265;28;20169;-66
2022/09/25 03:58:06;;;;;;;37.58;13.40;;;;;;;11.37;100.00;100633.88;6001044;28;20336;-67
2022/09/25 04:01:02;;;;;;;37.20;13.47;;;;;;;11.44;100.00;100642.91;5999644;28;20078;-67
2022/09/25 04:04:00;;;;;;;41.58;14.75;;;;;;;11.45;100.00;100635.78;6000704;28;20130;-67
2022/09/25 04:06:55;;;;;;;39.38;14.93;;;;;;;11.41;100.00;100627.31;6000441;28;20031;-67
2022/09/25 04:09:51;;;;;;;40.75;14.50;;;;;;;11.41;100.00;100622.00;6000795;28;20070;-67
2022/09/25 04:12:46;;;;;;;47.43;15.73;;;;;;;11.36;100.00;100624.25;5999727;28;20039;-67
2022/09/25 04:15:41;;;;;;;48.97;16.77;;;;;;;11.41;100.00;100629.13;6000173;28;20117;-67
2022/09/25 04:18:37;;;;;;;47.43;16.53;;;;;;;11.38;100.00;100618.81;6000315;28;20035;-67
2022/09/25 04:21:32;;;;;;;51.08;16.50;;;;;;;11.38;100.00;100635.56;5999936;28;20035;-67
2022/09/25 04:27:45;;;;;;;51.30;18.20;;;;;;;11.29;100.00;100612.59;6000312;28;20027;-67
2022/09/25 04:30:40;;;;;;;59.45;19.80;;;;;;;11.32;100.00;100618.44;5998912;28;20429;-67
2022/09/25 04:33:47;;;;;;;48.40;18.90;;;;;;;11.32;100.00;100615.78;6000132;28;20093;-66
2022/09/25 04:36:43;;;;;;;50.72;19.63;;;;;;;11.35;100.00;100627.91;6000018;28;20509;-67
2022/09/25 04:39:39;;;;;;;50.53;18.63;;;;;;;11.31;100.00;100614.09;5999856;28;20046;-67
2022/09/25 04:42:34;;;;;;;47.53;17.95;;;;;;;11.39;100.00;100621.28;5998536;28;20063;-67
2022/09/25 04:45:29;;;;;;;49.27;16.37;;;;;;;11.32;100.00;100614.94;6000033;28;20471;-67
2022/09/25 04:48:25;;;;;;;41.15;15.70;;;;;;;11.28;100.00;100613.56;5998033;28;20081;-67
2022/09/25 04:51:20;;;;;;;46.27;15.77;;;;;;;11.29;100.00;100620.56;5998443;28;20633;-67
2022/09/25 04:54:16;;;;;;;43.85;16.55;;;;;;;11.35;100.00;100631.41;5999594;28;20095;-67
2022/09/25 04:57:16;;;;;;;45.30;14.27;;;;;;;11.35;100.00;100633.22;5999431;28;20386;-67
2022/09/25 05:00:15;;;;;;;41.30;14.10;;;;;;;11.30;100.00;100632.84;5998760;28;20026;-67
2022/09/25 05:03:11;;;;;;;41.90;13.75;;;;;;;11.29;100.00;100631.16;5999364;28;20046;-67
2022/09/25 05:06:06;;;;;;;33.77;12.57;;;;;;;11.31;100.00;100623.88;5999574;28;20118;-67
2022/09/25 05:09:02;;;;;;;36.73;12.90;;;;;;;11.27;100.00;100617.22;5999625;28;20475;-67
2022/09/25 05:11:58;;;;;;;30.67;12.30;;;;;;;11.31;100.00;100629.19;5998131;28;20046;-67
2022/09/25 05:14:53;;;;;;;28.13;11.45;;;;;;;11.34;100.00;100636.84;5999439;28;20058;-67
2022/09/25 05:17:48;;;;;;;26.63;12.00;;;;;;;11.25;100.00;100620.00;5998266;28;20031;-67
2022/09/25 05:20:44;;;;;;;32.17;12.73;;;;;;;11.33;100.00;100627.22;5998804;28;20077;-67
2022/09/25 05:23:39;;;;;;;25.38;10.68;;;;;;;11.26;100.00;100620.84;5999229;28;20109;-67
2022/09/25 05:26:36;;;;;;;22.07;9.27;;;;;;;11.40;100.00;100630.09;5998910;28;20039;-67
2022/09/25 05:29:33;;;;;;;21.75;9.63;;;;;;;11.35;100.00;100635.88;5998498;28;20037;-67
2022/09/25 05:32:29;;;;;;;20.80;8.65;;;;;;;11.35;100.00;100627.91;5998170;28;20093;-67
2022/09/25 05:35:30;;;;;;;20.13;8.25;;;;;;;11.46;100.00;100638.28;5998941;28;20497;-67
2022/09/25 05:38:25;;;;;;;18.40;8.38;;;;;;;11.49;100.00;100637.16;5997914;28;20042;-66
2022/09/25 05:41:21;;;;;;;16.45;8.23;;;;;;;11.49;100.00;100631.84;5998567;28;20379;-67
2022/09/25 05:44:16;;;;;;;17.13;7.37;;;;;;;11.51;100.00;100630.69;5998997;28;20035;-67
2022/09/25 05:47:11;;;;;;;16.80;7.70;;;;;;;11.54;100.00;100635.69;5998727;28;20097;-66
2022/09/25 05:50:08;;;;;;;18.90;7.53;;;;;;;11.55;100.00;100639.19;5998218;28;20042;-66
2022/09/25 05:53:04;;;;;;;18.52;8.18;;;;;;;11.47;100.00;100628.50;5998813;28;20027;-67
2022/09/25 05:56:01;;;;;;;18.88;7.57;;;;;;;11.54;100.00;100633.03;5999095;28;20155;-67
2022/09/25 05:58:57;;;;;;;15.30;7.60;;;;;;;11.49;100.00;100622.06;5999700;28;20122;-66
2022/09/25 06:01:52;;;;;;;18.92;8.10;;;;;;;11.48;100.00;100631.00;6002496;28;20615;-67
2022/09/25 06:04:48;;;;;;;17.97;7.87;;;;;;;11.42;100.00;100622.81;6003637;28;20039;-67
2022/09/25 06:07:43;;;;;;;15.68;7.60;;;;;;;11.45;100.00;100619.84;6002668;28;20082;-67
2022/09/25 06:10:39;;;;;;;18.83;8.25;;;;;;;11.52;100.00;100631.53;5997965;28;20043;-67
2022/09/25 06:13:35;;;;;;;20.63;8.43;;;;;;;11.50;100.00;100623.69;6001039;28;20049;-67
2022/09/25 06:16:31;;;;;;;17.23;8.13;;;;;;;11.50;100.00;100626.34;6001268;28;20034;-67
2022/09/25 06:19:28;;;;;;;19.43;7.60;;;;;;;11.57;100.00;100635.41;6008096;28;20039;-67
2022/09/25 06:22:23;;;;;;;20.10;8.50;;;;;;;11.45;100.00;100620.69;5999894;28;20085;-67
2022/09/25 06:25:20;;;;;;;19.50;8.83;;;;;;;11.51;100.00;100636.00;6000550;28;20418;-67
2022/09/25 06:28:15;;;;;;;20.90;8.68;;;;;;;11.36;100.00;100621.59;5999841;28;20030;-67
2022/09/25 06:31:10;;;;;;;17.57;8.50;;;;;;;11.44;100.00;100624.31;5998353;28;20041;-67
2022/09/25 06:34:08;;;;;;;19.70;9.13;;;;;;;11.38;100.00;100618.81;5999970;28;20890;-67
2022/09/25 06:37:03;;;;;;;21.42;9.43;;;;;;;11.42;100.00;100626.28;6000248;28;20266;-67
2022/09/25 06:39:58;;;;;;;24.40;9.73;;;;;;;11.47;100.00;100634.63;5999598;28;20043;-67
2022/09/25 06:42:55;;;;;;;20.00;8.53;;;;;;;11.50;100.00;100634.31;5999587;28;20113;-67
2022/09/25 06:45:51;;;;;;;18.70;9.65;;;;;;;11.45;100.00;100627.81;5999524;28;20296;-67
2022/09/25 06:48:53;;;;;;;20.73;10.00;;;;;;;11.54;100.00;100614.47;5998600;28;20039;-67
2022/09/25 06:51:50;;;;;;;21.02;9.15;;;;;;;11.52;100.00;100626.22;5998737;28;20278;-67
2022/09/25 06:54:45;;;;;;;20.25;8.65;;;;;;;11.60;100.00;100623.63;5999672;28;20042;-66
2022/09/25 06:57:40;;;;;;;21.30;9.23;;;;;;;11.65;100.00;100624.00;5998850;28;20034;-67
2022/09/25 07:00:36;;;;;;;17.93;8.93;;;;;;;11.62;100.00;100625.13;5998168;28;20045;-67
2022/09/25 07:03:43;;;;;;;22.23;9.30;;;;;;;11.70;100.00;100635.84;6021551;28;20034;-67
2022/09/25 07:06:39;;;;;;;19.52;9.27;;;;;;;11.74;100.00;100636.38;6018978;28;20030;-67
2022/09/25 07:09:35;;;;;;;17.67;8.65;;;;;;;11.70;100.00;100640.31;6009359;28;20506;-67
2022/09/25 07:12:31;;;;;;;23.45;9.02;;;;;;;11.56;100.00;100635.53;5998432;28;20045;-67
2022/09/25 07:15:27;;;;;;;24.58;9.38;;;;;;;11.70;100.00;100650.94;5999274;28;20035;-66
2022/09/25 07:18:23;;;;;;;25.47;9.63;;;;;;;11.65;100.00;100640.78;5998834;28;20034;-67
2022/09/25 07:21:20;;;;;;;21.58;9.20;;;;;;;11.68;100.00;100647.59;5998171;28;20336;-67
2022/09/25 07:24:15;;;;;;;21.10;9.10;;;;;;;11.58;100.00;100633.53;5999403;28;20117;-67
2022/09/25 07:27:10;;;;;;;26.90;10.43;;;;;;;11.63;100.00;100640.06;5998873;28;20027;-67
2022/09/25 07:30:07;;;;;;;19.90;8.80;;;;;;;11.63;100.00;100645.38;5997096;28;20034;-67
2022/09/25 07:33:02;;;;;;;21.25;8.85;;;;;;;11.59;100.00;100630.75;5998172;28;20023;-67
2022/09/25 07:35:59;;;;;;;26.60;8.70;;;;;;;11.59;100.00;100648.50;5998664;28;20030;-67
2022/09/25 07:38:55;;;;;;;19.70;8.20;;;;;;;11.58;100.00;100655.63;5998645;28;20031;-66
2022/09/25 07:41:53;;;;;;;17.67;8.23;;;;;;;11.59;100.00;100651.16;6007773;28;20418;-67
2022/09/25 07:44:48;;;;;;;21.63;9.38;;;;;;;11.67;100.00;100657.38;6021765;28;20133;-67
2022/09/25 07:47:43;;;;;;;18.10;8.80;;;;;;;11.62;100.00;100664.97;6021791;28;20098;-67
2022/09/25 07:50:38;;;;;;;16.57;7.93;;;;;;;11.58;100.00;100646.81;6000597;28;20047;-67
2022/09/25 07:53:34;;;;;;;18.60;7.93;;;;;;;11.59;100.00;100649.34;5998828;28;20053;-66
2022/09/25 07:56:29;;;;;;;19.63;7.77;;;;;;;11.68;100.00;100653.75;5998301;28;20119;-66
2022/09/25 07:59:24;;;;;;;20.00;7.63;;;;;;;11.77;100.00;100663.47;5998359;28;20038;-67
2022/09/25 08:02:20;;;;;;;16.17;7.00;;;;;;;11.75;100.00;100654.81;5997241;28;20038;-67
2022/09/25 08:05:15;;;;;;;13.47;7.10;;;;;;;11.79;100.00;100666.81;6000255;28;20425;-67
2022/09/25 08:08:10;;;;;;;22.17;8.37;;;;;;;11.74;100.00;100660.28;6020597;28;20457;-67
2022/09/25 08:11:08;;;;;;;14.57;6.83;;;;;;;11.76;100.00;100669.78;5996979;28;20293;-67
2022/09/25 08:14:04;;;;;;;22.02;8.38;;;;;;;11.73;100.00;100666.59;5998483;28;20431;-67
2022/09/25 08:16:59;;;;;;;16.20;7.60;;;;;;;11.70;100.00;100657.09;5997936;28;20070;-67
2022/09/25 08:19:54;;;;;;;19.50;7.40;;;;;;;11.73;100.00;100662.13;5997553;28;20093;-67
2022/09/25 08:22:53;;;;;;;17.53;7.20;;;;;;;11.73;100.00;100662.13;5996009;28;20038;-66
2022/09/25 08:25:49;;;;;;;16.98;7.50;;;;;;;11.80;100.00;100672.94;5997809;28;20733;-66
2022/09/25 08:28:44;;;;;;;23.43;7.77;;;;;;;11.83;100.00;100662.84;6000331;28;20027;-66
2022/09/25 08:31:39;;;;;;;19.13;7.30;;;;;;;11.79;100.00;100656.19;5997308;28;20638;-67
2022/09/25 08:34:35;;;;;;;15.45;8.13;;;;;;;11.86;100.00;100657.22;5997221;28;20042;-67
2022/09/25 08:37:31;;;;;;;13.88;6.25;;;;;;;11.77;100.00;100660.81;5997141;28;20042;-66
2022/09/25 08:40:27;;;;;;;17.23;7.55;;;;;;;11.79;100.00;100661.50;5996660;28;20114;-67
2022/09/25 08:43:24;;;;;;;16.83;8.35;;;;;;;11.90;100.00;100666.53;5997345;28;20034;-66
2022/09/25 08:50:20;;;;;;;14.48;6.82;;;;;;;11.87;100.00;100680.16;5996607;28;20492;-66
2022/09/25 08:53:23;;;;;;;17.50;7.57;;;;;;;11.82;100.00;100670.97;5995847;28;20385;-66
2022/09/25 08:56:18;;;;;;;19.00;7.03;;;;;;;12.05;100.00;100676.59;5995486;28;20039;-67
2022/09/25 08:59:25;;;;;;;20.13;7.22;;;;;;;12.11;100.00;100679.47;5996299;28;20057;-66
2022/09/25 09:02:34;;;;;;;17.50;6.57;;;;;;;12.06;100.00;100668.50;5995691;28;20062;-66
2022/09/25 09:05:34;;;;;;;16.50;6.28;;;;;;;12.18;100.00;100669.88;5999097;28;20392;-67
2022/09/25 09:08:30;;;;;;;12.20;5.85;;;;;;;12.29;100.00;100668.78;6003450;28;20497;-67
2022/09/25 09:11:31;;;;;;;15.57;6.72;;;;;;;12.46;100.00;100675.84;5994437;28;20744;-66
2022/09/25 09:14:29;;;;;;;15.35;6.53;;;;;;;12.47;100.00;100681.00;5995339;28;20081;-66
2022/09/25 09:17:26;;;;;;;14.98;6.18;;;;;;;12.63;100.00;100690.91;5997883;28;20790;-67
2022/09/25 09:20:52;;;;;;;18.85;6.28;;;;;;;12.76;100.00;100679.78;5995760;28;20042;-66
2022/09/25 09:23:59;;;;;;;16.38;6.07;;;;;;;12.97;100.00;100674.88;5998520;28;20121;-67
2022/09/25 09:27:28;;;;;;;12.07;5.45;;;;;;;13.10;100.00;100680.59;5997884;28;20029;-67
2022/09/25 09:30:34;;;;;;;12.18;6.10;;;;;;;13.39;100.00;100680.16;5997852;28;20523;-66
2022/09/25 09:33:40;;;;;;;13.50;6.22;;;;;;;13.53;99.91;100682.97;5997861;28;20045;-67
2022/09/25 09:36:56;;;;;;;12.85;6.05;;;;;;;13.31;98.20;100675.66;5997597;28;20499;-67
2022/09/25 09:40:16;;;;;;;12.80;5.78;;;;;;;13.44;97.78;100684.00;5993448;28;20425;-67
2022/09/25 09:43:30;;;;;;;15.55;6.63;;;;;;;13.40;97.60;100682.63;5998929;28;20049;-67
2022/09/25 09:46:32;;;;;;;15.23;6.50;;;;;;;13.32;96.88;100669.31;5999055;28;20505;-67
2022/09/25 09:49:35;;;;;;;14.68;7.32;;;;;;;13.46;97.26;100686.47;5999022;28;20043;-67
2022/09/25 09:52:35;;;;;;;13.80;5.88;;;;;;;13.35;97.33;100678.78;5997361;28;20030;-67
2022/09/25 09:55:47;;;;;;;12.70;5.97;;;;;;;13.27;96.92;100665.47;5997705;28;20113;-67
2022/09/25 09:58:45;;;;;;;12.95;5.80;;;;;;;13.20;97.76;100675.13;5996970;28;20043;-67
2022/09/25 10:01:41;;;;;;;10.35;5.60;;;;;;;13.03;99.02;100663.56;5997771;28;20051;-67
2022/09/25 10:04:37;;;;;;;12.45;5.50;;;;;;;13.04;99.13;100666.06;5998831;28;20037;-67
2022/09/25 10:07:35;;;;;;;10.98;4.45;;;;;;;13.12;99.28;100673.28;5996784;28;20030;-67
2022/09/25 10:10:36;;;;;;;13.18;5.03;;;;;;;13.23;99.88;100659.66;5999201;28;20512;-67
2022/09/25 10:13:35;;;;;;;10.75;5.03;;;;;;;13.19;98.70;100660.13;6017915;28;20149;-67
2022/09/25 10:16:30;;;;;;;11.05;4.03;;;;;;;13.12;98.27;100657.31;6015600;28;20465;-67
2022/09/25 10:19:28;;;;;;;12.43;4.70;;;;;;;13.20;99.35;100667.97;6005642;28;20042;-67
2022/09/25 10:22:26;;;;;;;13.40;4.95;;;;;;;13.31;98.76;100661.50;6012552;28;20034;-67
2022/09/25 10:25:37;;;;;;;9.00;4.57;;;;;;;13.40;98.15;100679.16;5997480;28;20363;-67
2022/09/25 10:28:35;;;;;;;13.77;6.05;;;;;;;13.30;98.35;100670.47;5997888;28;20039;-67
2022/09/25 10:31:57;;;;;;;14.18;7.57;;;;;;;13.06;98.13;100674.75;5997816;28;20451;-67
2022/09/25 10:34:53;;;;;;;17.50;7.03;;;;;;;12.83;99.64;100665.69;5996942;28;20067;-67
2022/09/25 10:37:53;;;;;;;12.77;7.82;;;;;;;12.93;100.00;100674.38;5998896;28;20053;-67
2022/09/25 10:40:59;;;;;;;17.52;7.35;;;;;;;13.00;100.00;100686.03;5997083;28;20031;-67
2022/09/25 10:43:58;;;;;;;20.25;7.53;;;;;;;12.95;100.00;100676.88;6002287;28;20035;-67
2022/09/25 10:50:17;;;;;;;15.10;7.50;;;;;;;13.04;100.00;100675.91;5994649;28;20035;-67
2022/09/25 10:53:27;;;;;;;17.55;7.30;;;;;;;12.92;100.00;100686.00;6001768;28;20046;-67
2022/09/25 10:56:34;;;;;;;21.23;7.63;;;;;;;12.78;100.00;100672.47;6011146;28;20386;-67
2022/09/25 10:59:30;;;;;;;14.73;6.72;;;;;;;12.71;100.00;100669.66;6000668;28;20097;-67
2022/09/25 11:02:42;;;;;;;14.88;7.63;;;;;;;12.74;100.00;100664.00;6001570;28;20054;-67
2022/09/25 11:05:37;;;;;;;14.35;7.05;;;;;;;12.91;100.00;100679.00;6001953;28;20042;-66
2022/09/25 11:08:37;;;;;;;13.90;6.33;;;;;;;13.05;100.00;100683.72;6011789;28;20118;-67
2022/09/25 11:11:33;;;;;;;15.98;7.18;;;;;;;13.05;100.00;100675.72;6002098;28;20033;-67
2022/09/25 11:14:31;;;;;;;12.15;6.03;;;;;;;12.98;100.00;100664.06;6001564;28;20738;-67
2022/09/25 11:17:38;;;;;;;18.17;6.22;;;;;;;13.13;100.00;100665.13;5996807;28;20034;-67
2022/09/25 11:20:35;;;;;;;13.25;5.97;;;;;;;13.41;100.00;100667.50;6000079;28;20059;-67
2022/09/25 11:23:46;;;;;;;16.17;6.28;;;;;;;13.70;97.96;100665.16;6001000;28;20073;-67
2022/09/25 11:26:50;;;;;;;13.75;5.32;;;;;;;13.77;96.50;100670.66;6009370;28;20381;-67
2022/09/25 11:30:01;;;;;;;10.48;5.78;;;;;;;13.96;93.98;100673.81;6002691;28;20038;-67
2022/09/25 11:33:21;;;;;;;13.57;4.90;;;;;;;14.21;92.90;100656.75;6015276;28;20119;-67
2022/09/25 11:36:31;;;;;;;8.07;4.50;;;;;;;14.61;90.79;100649.66;5999846;28;20035;-67
2022/09/25 11:42:58;;;;;;;8.52;4.32;;;;;;;14.77;88.16;100647.75;6002371;28;20035;-67
2022/09/25 11:46:01;;;;;;;8.43;3.83;;;;;;;14.19;88.73;100639.25;5999269;28;20137;-67
2022/09/25 11:49:11;;;;;;;8.93;4.57;;;;;;;14.09;90.64;100657.28;6016611;28;20023;-67
2022/09/25 11:52:26;;;;;;;9.70;4.45;;;;;;;13.94;92.17;100657.13;6000626;28;20735;-67
2022/09/25 11:55:46;;;;;;;8.25;4.32;;;;;;;13.71;94.44;100645.53;6001651;28;20035;-67
2022/09/25 11:58:53;;;;;;;12.38;5.25;;;;;;;13.45;96.00;100652.84;6010390;28;20035;-67
2022/09/25 12:01:50;;;;;;;;;;;;;;;13.41;95.17;100647.03;6000482;28;20371;-67
2022/09/25 12:05:13;;;;;;;10.35;4.45;;;;;;;13.61;95.58;100642.19;6000462;28;19968;-67
2022/09/25 12:08:15;;;;;;;8.02;4.10;;;;;;;13.71;93.05;100640.19;5998511;28;20026;-67
2022/09/25 12:11:30;;;;;;;9.50;4.30;;;;;;;13.90;93.11;100647.81;5999965;28;20038;-67
2022/09/25 12:14:58;;;;;;;9.90;4.32;;;;;;;13.99;92.03;100641.50;6011179;28;20101;-67
2022/09/25 12:18:16;;;;;;;10.05;4.63;;;;;;;14.16;91.31;100643.09;5982142;28;20070;-67
2022/09/25 12:21:16;;;;;;;8.27;4.47;;;;;;;14.13;90.21;100638.09;6012763;28;20035;-67
2022/09/25 12:24:25;;;;;;;11.07;4.45;;;;;;;14.30;88.89;100642.41;5997352;28;20105;-67
2022/09/25 12:27:31;;;;;;;8.55;3.60;;;;;;;14.09;88.31;100636.78;6022256;28;20474;-67
2022/09/25 12:30:29;;;;;;;;;;;;;;;14.31;90.10;100637.91;6005868;28;20039;-67
2022/09/25 12:33:37;;;;;;;9.88;3.70;;;;;;;14.41;89.03;100624.38;6013734;28;20606;-67
2022/09/25 12:36:43;;;;;;;7.68;3.22;;;;;;;14.41;86.29;100627.03;6013437;28;20034;-67
2022/09/25 12:40:13;;;;;;;8.10;3.60;;;;;;;14.62;86.51;100627.31;5997898;28;20038;-67
2022/09/25 12:43:13;;;;;;;8.55;3.88;;;;;;;14.92;84.85;100614.97;5959461;28;20074;-68
2022/09/25 12:46:14;;;;;;;6.28;3.53;;;;;;;15.05;83.29;100624.06;5999407;28;20066;-67
2022/09/25 12:49:15;;;;;;;4.97;3.28;;;;;;;14.99;81.96;100615.91;5999611;28;20038;-67
2022/09/25 12:52:36;;;;;;;7.60;3.28;;;;;;;15.35;82.39;100625.84;5999578;28;20030;-67
2022/09/25 12:55:39;;;;;;;8.07;3.28;;;;;;;15.48;81.69;100607.38;5999476;28;20035;-67
2022/09/25 12:58:37;;;;;;;6.78;3.05;;;;;;;15.78;81.28;100612.78;5998204;28;20077;-68
2022/09/25 13:01:44;;;;;;;6.65;3.28;;;;;;;15.90;80.31;100600.63;5999285;28;20043;-67
2022/09/25 13:05:31;;;;;;;5.78;2.75;;;;;;;15.90;79.56;100608.63;6008138;28;20126;-68
2022/09/25 13:08:32;;;;;;;7.40;3.08;;;;;;;15.90;78.00;100585.41;6013714;28;20042;-67
2022/09/25 13:11:44;;;;;;;4.20;2.38;;;;;;;15.97;77.33;100588.19;6021050;28;20034;-67
2022/09/25 13:14:47;;;;;;;5.50;2.65;;;;;;;16.22;76.97;100584.22;6008155;28;20426;-67
2022/09/25 13:17:42;;;;;;;9.57;2.90;;;;;;;16.53;76.25;100579.50;5998229;28;20058;-67
2022/09/25 13:20:39;;;;;;;8.50;3.35;;;;;;;16.50;74.98;100590.53;5997467;28;20034;-67
2022/09/25 13:23:39;;;;;;;7.40;2.90;;;;;;;16.16;75.70;100576.94;5998206;28;20038;-68
2022/09/25 13:26:53;;;;;;;5.95;2.60;;;;;;;16.17;76.12;100578.56;5997507;28;20379;-68
2022/09/25 13:30:00;;;;;;;8.40;2.60;;;;;;;16.35;76.89;100586.25;5991574;28;20058;-67
2022/09/25 13:32:58;;;;;;;4.75;2.33;;;;;;;16.19;76.13;100575.72;6013065;28;20041;-68
2022/09/25 13:36:08;;;;;;;4.20;2.65;;;;;;;16.25;76.99;100573.13;5998047;28;20062;-68
2022/09/25 13:42:28;;;;;;;7.55;2.63;;;;;;;16.29;75.91;100586.97;6006217;28;20043;-67
2022/09/25 13:45:25;;;;;;;5.10;1.85;;;;;;;16.48;75.87;100581.88;5998573;28;20398;-68
2022/09/25 13:48:27;;;;;;;3.97;1.70;;;;;;;17.15;72.29;100582.44;5998509;28;20689;-68
2022/09/25 13:51:22;;;;;;;2.97;1.25;;;;;;;17.40;69.35;100576.66;5998982;28;20050;-68
2022/09/25 13:54:17;;;;;;;4.83;1.83;;;;;;;17.07;70.06;100577.19;5998097;28;20035;-68
2022/09/25 13:57:14;;;;;;;4.43;1.95;;;;;;;16.54;71.57;100581.16;6013554;28;20538;-68
2022/09/25 14:00:14;;;;;;;5.20;1.67;;;;;;;16.20;72.19;100572.06;6021024;28;20492;-67
2022/09/25 14:03:43;;;;;;;5.10;1.70;;;;;;;16.23;73.47;100567.13;6001951;28;20042;-68
2022/09/25 14:06:41;;;;;;;3.53;1.60;;;;;;;16.69;71.35;100572.28;6011193;28;20040;-68
2022/09/25 14:09:42;;;;;;;5.25;1.65;;;;;;;16.62;73.08;100570.34;6020666;28;20112;-68